sensor_id;sensor_type;location;lat;lon;timestamp;pressure;altitude;pressure_sealevel;temperature;humidity
21111;BME280;10713;51.912;4.494;2022-09-02T00:01:10;101650.34;;;18.19;92.83
21111;BME280;10713;51.912;4.494;2022-09-02T00:03:36;101654.25;;;18.14;93.22
21111;BME280;10713;51.912;4.494;2022-09-02T00:06:02;101659.75;;;18.11;93.99
21111;BME280;10713;51.912;4.494;2022-09-02T00:08:28;101654.53;;;18.09;94.43
21111;BME280;10713;51.912;4.494;2022-09-02T00:10:57;101653.84;;;18.06;95.00
21111;BME280;10713;51.912;4.494;2022-09-02T00:13:23;101652.22;;;18.03;94.32
21111;BME280;10713;51.912;4.494;2022-09-02T00:15:49;101646.00;;;18.02;95.02
21111;BME280;10713;51.912;4.494;2022-09-02T00:18:15;101647.13;;;17.98;95.49
21111;BME280;10713;51.912;4.494;2022-09-02T00:20:44;101643.50;;;17.99;95.50
21111;BME280;10713;51.912;4.494;2022-09-02T00:23:10;101636.44;;;17.98;95.50
21111;BME280;10713;51.912;4.494;2022-09-02T00:25:37;101637.41;;;17.97;95.94
21111;BME280;10713;51.912;4.494;2022-09-02T00:28:04;101634.97;;;17.93;95.25
21111;BME280;10713;51.912;4.494;2022-09-02T00:30:30;101641.09;;;17.95;95.59
21111;BME280;10713;51.912;4.494;2022-09-02T00:32:56;101634.97;;;17.93;95.32
21111;BME280;10713;51.912;4.494;2022-09-02T00:35:22;101636.00;;;17.90;95.89
21111;BME280;10713;51.912;4.494;2022-09-02T00:37:47;101636.81;;;17.92;96.43
21111;BME280;10713;51.912;4.494;2022-09-02T00:40:13;101630.00;;;17.87;97.46
21111;BME280;10713;51.912;4.494;2022-09-02T00:42:39;101628.38;;;17.84;97.93
21111;BME280;10713;51.912;4.494;2022-09-02T00:45:07;101629.31;;;17.83;97.87
21111;BME280;10713;51.912;4.494;2022-09-02T00:47:34;101626.81;;;17.80;98.52
21111;BME280;10713;51.912;4.494;2022-09-02T00:50:07;101613.47;;;17.80;97.46
21111;BME280;10713;51.912;4.494;2022-09-02T00:52:46;101619.75;;;17.79;97.86
21111;BME280;10713;51.912;4.494;2022-09-02T00:55:17;101616.44;;;17.74;97.73
21111;BME280;10713;51.912;4.494;2022-09-02T00:57:47;101617.50;;;17.71;99.22
21111;BME280;10713;51.912;4.494;2022-09-02T01:00:23;101617.56;;;17.70;98.63
21111;BME280;10713;51.912;4.494;2022-09-02T01:02:55;101616.03;;;17.66;100.00
21111;BME280;10713;51.912;4.494;2022-09-02T01:05:23;101605.53;;;17.63;100.00
21111;BME280;10713;51.912;4.494;2022-09-02T01:07:50;101611.81;;;17.62;99.65
21111;BME280;10713;51.912;4.494;2022-09-02T01:10:19;101612.16;;;17.55;100.00
21111;BME280;10713;51.912;4.494;2022-09-02T01:12:45;101605.28;;;17.51;100.00
21111;BME280;10713;51.912;4.494;2022-09-02T01:15:13;101608.97;;;17.49;100.00
21111;BME280;10713;51.912;4.494;2022-09-02T01:17:42;101608.38;;;17.44;100.00
21111;BME280;10713;51.912;4.494;2022-09-02T01:20:12;101607.69;;;17.40;100.00
21111;BME280;10713;51.912;4.494;2022-09-02T01:22:40;101605.09;;;17.39;100.00
21111;BME280;10713;51.912;4.494;2022-09-02T01:25:10;101609.75;;;17.35;100.00
21111;BME280;10713;51.912;4.494;2022-09-02T01:27:37;101603.91;;;17.28;100.00
21111;BME280;10713;51.912;4.494;2022-09-02T01:30:04;101610.94;;;17.29;100.00
21111;BME280;10713;51.912;4.494;2022-09-02T01:32:30;101600.50;;;17.25;100.00
21111;BME280;10713;51.912;4.494;2022-09-02T01:34:55;101597.78;;;17.26;100.00
21111;BME280;10713;51.912;4.494;2022-09-02T01:37:22;101598.81;;;17.24;100.00
21111;BME280;10713;51.912;4.494;2022-09-02T01:39:48;101589.25;;;17.20;100.00
21111;BME280;10713;51.912;4.494;2022-09-02T01:42:14;101592.94;;;17.17;100.00
21111;BME280;10713;51.912;4.494;2022-09-02T01:44:39;101596.81;;;17.11;100.00
21111;BME280;10713;51.912;4.494;2022-09-02T01:47:17;101592.56;;;17.07;100.00
21111;BME280;10713;51.912;4.494;2022-09-02T01:49:43;101596.44;;;17.02;100.00
21111;BME280;10713;51.912;4.494;2022-09-02T01:52:08;101594.72;;;17.01;100.00
21111;BME280;10713;51.912;4.494;2022-09-02T01:54:34;101598.34;;;17.00;100.00
21111;BME280;10713;51.912;4.494;2022-09-02T01:57:00;101592.75;;;17.04;100.00
21111;BME280;10713;51.912;4.494;2022-09-02T01:59:25;101584.06;;;17.01;100.00
21111;BME280;10713;51.912;4.494;2022-09-02T02:01:51;101590.34;;;17.00;100.00
21111;BME280;10713;51.912;4.494;2022-09-02T02:04:16;101586.22;;;16.94;100.00
21111;BME280;10713;51.912;4.494;2022-09-02T02:06:43;101592.63;;;16.90;100.00
21111;BME280;10713;51.912;4.494;2022-09-02T02:09:10;101591.09;;;16.86;100.00
21111;BME280;10713;51.912;4.494;2022-09-02T02:11:36;101582.22;;;16.85;100.00
21111;BME280;10713;51.912;4.494;2022-09-02T02:14:03;101588.50;;;16.84;100.00
21111;BME280;10713;51.912;4.494;2022-09-02T02:16:28;101585.19;;;16.79;100.00
21111;BME280;10713;51.912;4.494;2022-09-02T02:18:54;101580.34;;;16.70;100.00
21111;BME280;10713;51.912;4.494;2022-09-02T02:21:20;101583.09;;;16.69;100.00
21111;BME280;10713;51.912;4.494;2022-09-02T02:23:45;101579.53;;;16.68;100.00
21111;BME280;10713;51.912;4.494;2022-09-02T02:26:11;101581.53;;;16.64;100.00
21111;BME280;10713;51.912;4.494;2022-09-02T02:28:36;101578.06;;;16.62;100.00
21111;BME280;10713;51.912;4.494;2022-09-02T02:31:02;101578.22;;;16.59;100.00
21111;BME280;10713;51.912;4.494;2022-09-02T02:33:28;101571.34;;;16.55;100.00
21111;BME280;10713;51.912;4.494;2022-09-02T02:35:54;101570.50;;;16.55;100.00
21111;BME280;10713;51.912;4.494;2022-09-02T02:38:20;101575.03;;;16.53;100.00
21111;BME280;10713;51.912;4.494;2022-09-02T02:40:46;101571.56;;;16.51;100.00
21111;BME280;10713;51.912;4.494;2022-09-02T02:43:11;101561.88;;;16.50;100.00
21111;BME280;10713;51.912;4.494;2022-09-02T02:45:37;101565.41;;;16.50;100.00
21111;BME280;10713;51.912;4.494;2022-09-02T02:48:03;101568.91;;;16.51;100.00
21111;BME280;10713;51.912;4.494;2022-09-02T02:50:29;101566.25;;;16.51;100.00
21111;BME280;10713;51.912;4.494;2022-09-02T02:52:55;101561.88;;;16.50;100.00
21111;BME280;10713;51.912;4.494;2022-09-02T02:55:22;101570.50;;;16.55;100.00
21111;BME280;10713;51.912;4.494;2022-09-02T02:57:48;101568.84;;;16.52;100.00
21111;BME280;10713;51.912;4.494;2022-09-02T03:00:20;101563.41;;;16.54;100.00
21111;BME280;10713;51.912;4.494;2022-09-02T03:02:46;101562.72;;;16.50;100.00
21111;BME280;10713;51.912;4.494;2022-09-02T03:05:13;101555.53;;;16.52;100.00
21111;BME280;10713;51.912;4.494;2022-09-02T03:07:38;101553.72;;;16.53;100.00
21111;BME280;10713;51.912;4.494;2022-09-02T03:10:05;101549.25;;;16.53;100.00
21111;BME280;10713;51.912;4.494;2022-09-02T03:12:33;101551.06;;;16.53;100.00
21111;BME280;10713;51.912;4.494;2022-09-02T03:14:58;101552.94;;;16.51;100.00
21111;BME280;10713;51.912;4.494;2022-09-02T03:17:25;101548.63;;;16.48;100.00
21111;BME280;10713;51.912;4.494;2022-09-02T03:19:50;101555.84;;;16.46;100.00
21111;BME280;10713;51.912;4.494;2022-09-02T03:22:16;101554.09;;;16.45;100.00
21111;BME280;10713;51.912;4.494;2022-09-02T03:24:42;101557.03;;;16.40;100.00
21111;BME280;10713;51.912;4.494;2022-09-02T03:27:07;101553.41;;;16.41;100.00
21111;BME280;10713;51.912;4.494;2022-09-02T03:29:33;101548.94;;;16.42;100.00
21111;BME280;10713;51.912;4.494;2022-09-02T03:31:58;101551.00;;;16.37;100.00
21111;BME280;10713;51.912;4.494;2022-09-02T03:34:25;101544.03;;;16.34;100.00
21111;BME280;10713;51.912;4.494;2022-09-02T03:36:50;101552.88;;;16.35;100.00
21111;BME280;10713;51.912;4.494;2022-09-02T03:39:15;101541.38;;;16.34;100.00
21111;BME280;10713;51.912;4.494;2022-09-02T03:41:41;101553.13;;;16.30;100.00
21111;BME280;10713;51.912;4.494;2022-09-02T03:44:07;101544.34;;;16.28;100.00
21111;BME280;10713;51.912;4.494;2022-09-02T03:46:32;101546.94;;;16.30;100.00
21111;BME280;10713;51.912;4.494;2022-09-02T03:48:58;101549.59;;;16.30;100.00
21111;BME280;10713;51.912;4.494;2022-09-02T03:51:24;101534.63;;;16.27;100.00
21111;BME280;10713;51.912;4.494;2022-09-02T03:53:50;101537.22;;;16.29;100.00
21111;BME280;10713;51.912;4.494;2022-09-02T03:56:16;101533.59;;;16.30;100.00
21111;BME280;10713;51.912;4.494;2022-09-02T03:58:43;101524.91;;;16.26;100.00
21111;BME280;10713;51.912;4.494;2022-09-02T04:01:15;101527.50;;;16.28;100.00
21111;BME280;10713;51.912;4.494;2022-09-02T04:03:41;101526.63;;;16.27;100.00
21111;BME280;10713;51.912;4.494;2022-09-02T04:06:10;101524.81;;;16.28;100.00
21111;BME280;10713;51.912;4.494;2022-09-02T04:08:40;101524.91;;;16.26;100.00
21111;BME280;10713;51.912;4.494;2022-09-02T04:11:08;101518.81;;;16.24;100.00
21111;BME280;10713;51.912;4.494;2022-09-02T04:13:34;101519.03;;;16.19;100.00
21111;BME280;10713;51.912;4.494;2022-09-02T04:16:05;101519.97;;;16.18;100.00
21111;BME280;10713;51.912;4.494;2022-09-02T04:18:31;101525.47;;;16.15;100.00
21111;BME280;10713;51.912;4.494;2022-09-02T04:20:59;101522.81;;;16.15;100.00
21111;BME280;10713;51.912;4.494;2022-09-02T04:23:24;101517.56;;;16.14;100.00
21111;BME280;10713;51.912;4.494;2022-09-02T04:25:50;101511.47;;;16.12;100.00
21111;BME280;10713;51.912;4.494;2022-09-02T04:28:15;101510.75;;;16.08;100.00
21111;BME280;10713;51.912;4.494;2022-09-02T04:30:41;101509.72;;;16.11;100.00
21111;BME280;10713;51.912;4.494;2022-09-02T04:33:08;101507.94;;;16.11;100.00
21111;BME280;10713;51.912;4.494;2022-09-02T04:35:33;101509.81;;;16.09;100.00
21111;BME280;10713;51.912;4.494;2022-09-02T04:38:00;101515.13;;;16.09;100.00
21111;BME280;10713;51.912;4.494;2022-09-02T04:40:26;101511.63;;;16.09;100.00
21111;BME280;10713;51.912;4.494;2022-09-02T04:42:51;101509.13;;;16.06;100.00
21111;BME280;10713;51.912;4.494;2022-09-02T04:45:18;101502.16;;;16.03;100.00
21111;BME280;10713;51.912;4.494;2022-09-02T04:47:43;101503.22;;;15.99;100.00
21111;BME280;10713;51.912;4.494;2022-09-02T04:50:09;101498.78;;;15.99;100.00
21111;BME280;10713;51.912;4.494;2022-09-02T04:52:34;101505.19;;;15.95;100.00
21111;BME280;10713;51.912;4.494;2022-09-02T04:55:00;101501.69;;;15.95;100.00
21111;BME280;10713;51.912;4.494;2022-09-02T04:57:25;101506.16;;;15.94;100.00
21111;BME280;10713;51.912;4.494;2022-09-02T04:59:51;101509.66;;;15.95;100.00
21111;BME280;10713;51.912;4.494;2022-09-02T05:02:16;101503.38;;;15.96;100.00
21111;BME280;10713;51.912;4.494;2022-09-02T05:04:44;101501.75;;;15.93;100.00
21111;BME280;10713;51.912;4.494;2022-09-02T05:07:10;101495.50;;;15.94;100.00
21111;BME280;10713;51.912;4.494;2022-09-02T05:09:36;101508.88;;;15.93;100.00
21111;BME280;10713;51.912;4.494;2022-09-02T05:12:02;101502.53;;;15.95;100.00
21111;BME280;10713;51.912;4.494;2022-09-02T05:14:29;101504.25;;;15.96;100.00
21111;BME280;10713;51.912;4.494;2022-09-02T05:16:54;101512.22;;;15.96;100.00
21111;BME280;10713;51.912;4.494;2022-09-02T05:19:21;101507.47;;;16.03;100.00
21111;BME280;10713;51.912;4.494;2022-09-02T05:21:48;101512.63;;;16.06;100.00
21111;BME280;10713;51.912;4.494;2022-09-02T05:24:15;101512.53;;;16.08;100.00
21111;BME280;10713;51.912;4.494;2022-09-02T05:26:41;101519.34;;;16.13;100.00
21111;BME280;10713;51.912;4.494;2022-09-02T05:29:09;101515.94;;;16.11;100.00
21111;BME280;10713;51.912;4.494;2022-09-02T05:31:37;101515.84;;;16.13;100.00
21111;BME280;10713;51.912;4.494;2022-09-02T05:34:04;101518.75;;;16.08;100.00
21111;BME280;10713;51.912;4.494;2022-09-02T05:36:30;101502.78;;;16.08;100.00
21111;BME280;10713;51.912;4.494;2022-09-02T05:38:57;101513.16;;;16.13;100.00
21111;BME280;10713;51.912;4.494;2022-09-02T05:41:23;101519.66;;;16.25;100.00
21111;BME280;10713;51.912;4.494;2022-09-02T05:43:51;101506.88;;;16.49;100.00
21111;BME280;10713;51.912;4.494;2022-09-02T05:46:19;101500.44;;;16.86;100.00
21111;BME280;10713;51.912;4.494;2022-09-02T05:48:46;101514.00;;;17.13;100.00
21111;BME280;10713;51.912;4.494;2022-09-02T05:51:41;101491.44;;;17.50;100.00
21111;BME280;10713;51.912;4.494;2022-09-02T05:54:09;101502.66;;;17.87;100.00
21111;BME280;10713;51.912;4.494;2022-09-02T05:56:40;101499.97;;;18.17;100.00
21111;BME280;10713;51.912;4.494;2022-09-02T05:59:06;101499.31;;;18.42;100.00
21111;BME280;10713;51.912;4.494;2022-09-02T06:01:33;101503.53;;;18.75;100.00
21111;BME280;10713;51.912;4.494;2022-09-02T06:03:58;101498.72;;;19.09;100.00
21111;BME280;10713;51.912;4.494;2022-09-02T06:06:27;101496.59;;;19.41;100.00
21111;BME280;10713;51.912;4.494;2022-09-02T06:08:53;101501.50;;;19.62;100.00
21111;BME280;10713;51.912;4.494;2022-09-02T06:11:18;101499.91;;;19.99;99.73
21111;BME280;10713;51.912;4.494;2022-09-02T06:13:44;101501.59;;;20.00;96.26
21111;BME280;10713;51.912;4.494;2022-09-02T06:16:13;101496.56;;;20.08;95.38
21111;BME280;10713;51.912;4.494;2022-09-02T06:18:39;101495.97;;;20.17;92.07
21111;BME280;10713;51.912;4.494;2022-09-02T06:21:05;101504.09;;;20.29;89.54
21111;BME280;10713;51.912;4.494;2022-09-02T06:23:33;101505.84;;;20.55;88.42
21111;BME280;10713;51.912;4.494;2022-09-02T06:25:59;101493.69;;;20.75;84.57
21111;BME280;10713;51.912;4.494;2022-09-02T06:28:24;101491.50;;;20.93;82.77
21111;BME280;10713;51.912;4.494;2022-09-02T06:30:50;101492.59;;;21.14;81.08
21111;BME280;10713;51.912;4.494;2022-09-02T06:33:15;101490.41;;;21.32;78.99
21111;BME280;10713;51.912;4.494;2022-09-02T06:35:43;101495.16;;;21.53;76.18
21111;BME280;10713;51.912;4.494;2022-09-02T06:38:12;101495.97;;;21.77;73.14
21111;BME280;10713;51.912;4.494;2022-09-02T06:40:52;101483.00;;;21.95;69.28
21111;BME280;10713;51.912;4.494;2022-09-02T06:43:18;101492.72;;;22.32;70.14
21111;BME280;10713;51.912;4.494;2022-09-02T06:45:44;101490.66;;;22.35;68.35
21111;BME280;10713;51.912;4.494;2022-09-02T06:48:10;101485.53;;;22.32;66.90
21111;BME280;10713;51.912;4.494;2022-09-02T06:50:44;101481.84;;;22.33;63.90
21111;BME280;10713;51.912;4.494;2022-09-02T06:53:10;101486.50;;;22.65;63.43
21111;BME280;10713;51.912;4.494;2022-09-02T06:55:38;101475.22;;;22.93;61.62
21111;BME280;10713;51.912;4.494;2022-09-02T06:58:04;101491.91;;;22.99;60.64
21111;BME280;10713;51.912;4.494;2022-09-02T07:00:30;101483.06;;;23.08;58.94
21111;BME280;10713;51.912;4.494;2022-09-02T07:02:57;101489.16;;;23.21;56.83
21111;BME280;10713;51.912;4.494;2022-09-02T07:05:41;101482.31;;;23.06;57.12
21111;BME280;10713;51.912;4.494;2022-09-02T07:08:06;101478.94;;;22.70;58.16
21111;BME280;10713;51.912;4.494;2022-09-02T07:10:32;101477.94;;;22.37;58.33
21111;BME280;10713;51.912;4.494;2022-09-02T07:12:57;101475.72;;;22.20;59.66
21111;BME280;10713;51.912;4.494;2022-09-02T07:15:23;101476.41;;;22.11;60.42
21111;BME280;10713;51.912;4.494;2022-09-02T07:17:48;101471.34;;;22.41;60.99
21111;BME280;10713;51.912;4.494;2022-09-02T07:20:15;101463.16;;;22.54;59.71
21111;BME280;10713;51.912;4.494;2022-09-02T07:22:40;101468.50;;;22.77;59.68
21111;BME280;10713;51.912;4.494;2022-09-02T07:25:06;101470.94;;;22.91;60.06
21111;BME280;10713;51.912;4.494;2022-09-02T07:27:33;101463.59;;;22.93;58.67
21111;BME280;10713;51.912;4.494;2022-09-02T07:29:58;101463.00;;;23.44;58.27
21111;BME280;10713;51.912;4.494;2022-09-02T07:32:24;101459.91;;;23.81;57.03
21111;BME280;10713;51.912;4.494;2022-09-02T07:34:49;101468.00;;;24.02;55.52
21111;BME280;10713;51.912;4.494;2022-09-02T07:37:15;101466.19;;;24.12;54.59
21111;BME280;10713;51.912;4.494;2022-09-02T07:39:40;101455.19;;;24.25;53.70
21111;BME280;10713;51.912;4.494;2022-09-02T07:42:05;101458.53;;;24.38;53.52
21111;BME280;10713;51.912;4.494;2022-09-02T07:44:31;101453.84;;;24.40;53.37
21111;BME280;10713;51.912;4.494;2022-09-02T07:46:56;101453.69;;;24.11;53.64
21111;BME280;10713;51.912;4.494;2022-09-02T07:49:22;101457.06;;;23.82;54.10
21111;BME280;10713;51.912;4.494;2022-09-02T07:51:49;101462.59;;;23.49;55.52
21111;BME280;10713;51.912;4.494;2022-09-02T07:54:21;101457.22;;;23.16;56.79
21111;BME280;10713;51.912;4.494;2022-09-02T07:56:47;101454.53;;;22.94;57.79
21111;BME280;10713;51.912;4.494;2022-09-02T07:59:14;101457.75;;;22.77;59.69
21111;BME280;10713;51.912;4.494;2022-09-02T08:01:40;101464.63;;;22.69;60.99
21111;BME280;10713;51.912;4.494;2022-09-02T08:04:08;101455.31;;;22.51;63.31
21111;BME280;10713;51.912;4.494;2022-09-02T08:06:34;101464.97;;;22.20;65.22
21111;BME280;10713;51.912;4.494;2022-09-02T08:09:03;101451.94;;;22.02;68.17
21111;BME280;10713;51.912;4.494;2022-09-02T08:11:29;101458.16;;;21.92;70.45
21111;BME280;10713;51.912;4.494;2022-09-02T08:13:56;101458.63;;;21.86;72.94
21111;BME280;10713;51.912;4.494;2022-09-02T08:16:22;101456.75;;;22.10;73.79
21111;BME280;10713;51.912;4.494;2022-09-02T08:18:47;101453.88;;;22.36;73.18
21111;BME280;10713;51.912;4.494;2022-09-02T08:21:12;101450.44;;;22.56;71.65
21111;BME280;10713;51.912;4.494;2022-09-02T08:23:38;101449.66;;;22.88;70.79
21111;BME280;10713;51.912;4.494;2022-09-02T08:26:05;101444.41;;;22.98;70.31
21111;BME280;10713;51.912;4.494;2022-09-02T08:28:31;101442.66;;;23.08;70.11
21111;BME280;10713;51.912;4.494;2022-09-02T08:30:57;101448.31;;;23.05;68.51
21111;BME280;10713;51.912;4.494;2022-09-02T08:33:22;101443.97;;;23.25;67.86
21111;BME280;10713;51.912;4.494;2022-09-02T08:35:48;101444.47;;;23.19;66.40
21111;BME280;10713;51.912;4.494;2022-09-02T08:38:13;101440.13;;;23.38;65.21
21111;BME280;10713;51.912;4.494;2022-09-02T08:40:40;101446.16;;;23.52;63.26
21111;BME280;10713;51.912;4.494;2022-09-02T08:43:22;101439.19;;;23.49;63.05
21111;BME280;10713;51.912;4.494;2022-09-02T08:45:50;101432.63;;;23.10;63.44
21111;BME280;10713;51.912;4.494;2022-09-02T08:50:46;101448.09;;;22.52;69.43
21111;BME280;10713;51.912;4.494;2022-09-02T08:55:45;101438.34;;;22.39;68.26
21111;BME280;10713;51.912;4.494;2022-09-02T08:58:17;101429.03;;;22.55;67.16
21111;BME280;10713;51.912;4.494;2022-09-02T09:00:45;101433.50;;;22.99;65.38
21111;BME280;10713;51.912;4.494;2022-09-02T09:03:17;101440.59;;;23.44;64.11
21111;BME280;10713;51.912;4.494;2022-09-02T09:06:15;101430.03;;;23.94;61.46
21111;BME280;10713;51.912;4.494;2022-09-02T09:09:04;101423.03;;;24.12;59.27
21111;BME280;10713;51.912;4.494;2022-09-02T09:11:44;101424.38;;;24.48;58.64
21111;BME280;10713;51.912;4.494;2022-09-02T09:14:31;101433.84;;;24.73;55.98
21111;BME280;10713;51.912;4.494;2022-09-02T09:17:02;101416.56;;;25.05;55.06
21111;BME280;10713;51.912;4.494;2022-09-02T09:19:47;101426.84;;;25.31;54.46
21111;BME280;10713;51.912;4.494;2022-09-02T09:22:17;101421.13;;;25.44;54.24
21111;BME280;10713;51.912;4.494;2022-09-02T09:24:46;101418.16;;;25.37;53.58
21111;BME280;10713;51.912;4.494;2022-09-02T09:27:14;101423.84;;;25.34;53.41
21111;BME280;10713;51.912;4.494;2022-09-02T09:29:40;101423.56;;;25.37;53.74
21111;BME280;10713;51.912;4.494;2022-09-02T09:32:16;101421.41;;;25.40;53.62
21111;BME280;10713;51.912;4.494;2022-09-02T09:35:00;101414.44;;;25.38;54.45
21111;BME280;10713;51.912;4.494;2022-09-02T09:37:38;101412.75;;;25.37;54.62
21111;BME280;10713;51.912;4.494;2022-09-02T09:45:34;101405.63;;;26.49;52.25
21111;BME280;10713;51.912;4.494;2022-09-02T09:51:08;101401.66;;;26.99;50.03
21111;BME280;10713;51.912;4.494;2022-09-02T09:53:35;101398.75;;;27.28;49.40
21111;BME280;10713;51.912;4.494;2022-09-02T10:01:28;101396.16;;;28.15;46.52
21111;BME280;10713;51.912;4.494;2022-09-02T10:04:07;101400.75;;;27.88;45.61
21111;BME280;10713;51.912;4.494;2022-09-02T10:06:39;101401.78;;;28.21;45.31
21111;BME280;10713;51.912;4.494;2022-09-02T10:14:31;101399.91;;;27.88;45.64
21111;BME280;10713;51.912;4.494;2022-09-02T10:20:02;101398.34;;;28.11;44.80
21111;BME280;10713;51.912;4.494;2022-09-02T10:25:57;101383.88;;;28.37;44.14
21111;BME280;10713;51.912;4.494;2022-09-02T10:28:41;101379.38;;;28.45;44.19
21111;BME280;10713;51.912;4.494;2022-09-02T10:31:28;101377.06;;;28.33;43.55
21111;BME280;10713;51.912;4.494;2022-09-02T10:42:15;101377.72;;;28.61;43.66
21111;BME280;10713;51.912;4.494;2022-09-02T10:50:17;101378.69;;;28.17;43.38
21111;BME280;10713;51.912;4.494;2022-09-02T11:00:58;101363.75;;;27.61;43.95
21111;BME280;10713;51.912;4.494;2022-09-02T11:05:56;101365.28;;;27.37;45.05
21111;BME280;10713;51.912;4.494;2022-09-02T11:11:10;101360.53;;;27.04;45.72
21111;BME280;10713;51.912;4.494;2022-09-02T11:16:18;101346.41;;;27.28;45.70
21111;BME280;10713;51.912;4.494;2022-09-02T11:18:57;101345.13;;;27.40;45.41
21111;BME280;10713;51.912;4.494;2022-09-02T11:24:34;101338.63;;;27.51;45.35
21111;BME280;10713;51.912;4.494;2022-09-02T11:32:27;101321.63;;;27.23;46.20
21111;BME280;10713;51.912;4.494;2022-09-02T11:34:56;101320.69;;;27.14;46.55
21111;BME280;10713;51.912;4.494;2022-09-02T11:40:00;101322.09;;;26.82;46.99
21111;BME280;10713;51.912;4.494;2022-09-02T11:50:42;101316.72;;;25.99;49.30
21111;BME280;10713;51.912;4.494;2022-09-02T11:58:40;101309.38;;;25.82;51.19
21111;BME280;10713;51.912;4.494;2022-09-02T12:09:45;101292.88;;;25.75;48.70
21111;BME280;10713;51.912;4.494;2022-09-02T12:18:06;101305.66;;;25.93;46.94
21111;BME280;10713;51.912;4.494;2022-09-02T12:23:04;101286.44;;;25.96;46.73
21111;BME280;10713;51.912;4.494;2022-09-02T12:28:24;101280.25;;;26.03;45.58
21111;BME280;10713;51.912;4.494;2022-09-02T12:33:30;101281.16;;;25.94;42.72
21111;BME280;10713;51.912;4.494;2022-09-02T12:35:56;101304.41;;;25.87;41.78
21111;BME280;10713;51.912;4.494;2022-09-02T12:38:28;101275.63;;;25.86;40.78
21111;BME280;10713;51.912;4.494;2022-09-02T12:52:01;101263.19;;;26.03;39.94
21111;BME280;10713;51.912;4.494;2022-09-02T12:54:44;101253.06;;;26.05;40.09
21111;BME280;10713;51.912;4.494;2022-09-02T12:57:14;101247.44;;;26.16;39.92
21111;BME280;10713;51.912;4.494;2022-09-02T12:59:41;101239.56;;;26.23;39.40
21111;BME280;10713;51.912;4.494;2022-09-02T13:19:15;101233.59;;;26.01;37.45
21111;BME280;10713;51.912;4.494;2022-09-02T13:21:58;101227.41;;;26.09;38.08
21111;BME280;10713;51.912;4.494;2022-09-02T13:30:12;101225.53;;;26.10;38.39
21111;BME280;10713;51.912;4.494;2022-09-02T13:32:39;101228.34;;;26.18;39.13
21111;BME280;10713;51.912;4.494;2022-09-02T13:35:07;101222.56;;;26.13;38.00
21111;BME280;10713;51.912;4.494;2022-09-02T13:37:41;101228.41;;;26.08;38.67
21111;BME280;10713;51.912;4.494;2022-09-02T13:40:19;101219.75;;;26.04;38.57
21111;BME280;10713;51.912;4.494;2022-09-02T13:42:50;101230.19;;;25.99;38.68
21111;BME280;10713;51.912;4.494;2022-09-02T13:45:21;101224.59;;;26.01;39.19
21111;BME280;10713;51.912;4.494;2022-09-02T13:47:58;101221.03;;;26.00;38.97
21111;BME280;10713;51.912;4.494;2022-09-02T13:50:26;101223.44;;;26.03;39.05
21111;BME280;10713;51.912;4.494;2022-09-02T13:52:55;101209.91;;;26.03;38.08
21111;BME280;10713;51.912;4.494;2022-09-02T13:55:21;101211.03;;;26.11;37.77
21111;BME280;10713;51.912;4.494;2022-09-02T14:00:31;101196.97;;;26.25;37.78
21111;BME280;10713;51.912;4.494;2022-09-02T14:03:00;101205.94;;;26.25;38.14
21111;BME280;10713;51.912;4.494;2022-09-02T14:05:27;101204.34;;;26.33;38.38
21111;BME280;10713;51.912;4.494;2022-09-02T14:07:56;101193.19;;;26.36;38.59
21111;BME280;10713;51.912;4.494;2022-09-02T14:10:25;101183.75;;;26.40;37.96
21111;BME280;10713;51.912;4.494;2022-09-02T14:12:52;101196.75;;;26.36;37.93
21111;BME280;10713;51.912;4.494;2022-09-02T14:15:30;101194.97;;;26.27;36.85
21111;BME280;10713;51.912;4.494;2022-09-02T14:20:36;101184.06;;;26.37;36.84
21111;BME280;10713;51.912;4.494;2022-09-02T14:23:02;101177.81;;;26.36;36.28
21111;BME280;10713;51.912;4.494;2022-09-02T14:25:37;101174.41;;;26.34;36.35
21111;BME280;10713;51.912;4.494;2022-09-02T14:28:18;101170.84;;;26.34;36.34
21111;BME280;10713;51.912;4.494;2022-09-02T14:33:26;101163.25;;;26.37;35.96
21111;BME280;10713;51.912;4.494;2022-09-02T14:35:59;101162.63;;;26.43;35.96
21111;BME280;10713;51.912;4.494;2022-09-02T14:38:27;101157.78;;;26.47;35.67
21111;BME280;10713;51.912;4.494;2022-09-02T14:41:01;101152.91;;;26.50;36.15
21111;BME280;10713;51.912;4.494;2022-09-02T14:43:50;101147.41;;;26.42;35.21
21111;BME280;10713;51.912;4.494;2022-09-02T14:46:32;101153.59;;;26.35;35.38
21111;BME280;10713;51.912;4.494;2022-09-02T14:49:06;101150.03;;;26.34;35.17
21111;BME280;10713;51.912;4.494;2022-09-02T14:51:44;101146.16;;;26.37;35.29
21111;BME280;10713;51.912;4.494;2022-09-02T14:54:10;101136.50;;;26.34;35.61
21111;BME280;10713;51.912;4.494;2022-09-02T14:59:08;101136.34;;;26.18;35.81
21111;BME280;10713;51.912;4.494;2022-09-02T15:01:40;101138.53;;;26.14;35.90
21111;BME280;10713;51.912;4.494;2022-09-02T15:04:08;101142.91;;;26.15;36.10
21111;BME280;10713;51.912;4.494;2022-09-02T15:06:33;101145.25;;;26.10;35.40
21111;BME280;10713;51.912;4.494;2022-09-02T15:08:58;101143.53;;;26.09;35.59
21111;BME280;10713;51.912;4.494;2022-09-02T15:11:24;101127.47;;;26.08;36.09
21111;BME280;10713;51.912;4.494;2022-09-02T15:13:49;101129.34;;;26.07;36.04
21111;BME280;10713;51.912;4.494;2022-09-02T15:16:14;101131.88;;;26.09;35.59
21111;BME280;10713;51.912;4.494;2022-09-02T15:18:40;101128.63;;;26.05;35.72
21111;BME280;10713;51.912;4.494;2022-09-02T15:21:05;101140.59;;;26.02;35.87
21111;BME280;10713;51.912;4.494;2022-09-02T15:23:31;101137.59;;;26.05;35.82